Time,TemperatureF,DewpointF,PressureIn,WindDirection,WindDirectionDegrees,WindSpeedMPH,WindSpeedGustMPH,Humidity,HourlyPrecipIn,Conditions,Clouds,dailyrainin,SoftwareType,DateUTC
2013-08-24 00:02:00,54.9,52.0,30.27,SSW,192,0.0,0.0,88,0.00,,,0.00,weatherlink.com 1.10,2013-08-24 04:02:00,
2013-08-24 00:17:00,54.1,51.0,30.27,SSW,192,0.0,0.0,88,0.00,,,0.00,weatherlink.com 1.10,2013-08-24 04:17:00,
2013-08-24 00:32:00,53.6,50.0,30.27,SSW,192,0.0,0.0,88,0.00,,,0.00,weatherlink.com 1.10,2013-08-24 04:32:00,
2013-08-24 00:47:00,53.5,50.0,30.27,SSW,192,0.0,0.0,88,0.00,,,0.00,weatherlink.com 1.10,2013-08-24 04:47:00,
2013-08-24 01:02:00,53.3,50.0,30.27,SSW,192,0.0,0.0,88,0.00,,,0.00,weatherlink.com 1.10,2013-08-24 05:02:00,
2013-08-24 01:17:00,52.9,50.0,30.27,SSW,192,0.0,0.0,88,0.00,,,0.00,weatherlink.com 1.10,2013-08-24 05:17:00,
2013-08-24 01:32:00,52.8,49.0,30.27,SSW,192,0.0,0.0,88,0.00,,,0.00,weatherlink.com 1.10,2013-08-24 05:32:00,
2013-08-24 01:47:00,52.5,49.0,30.27,SSW,192,0.0,0.0,88,0.00,,,0.00,weatherlink.com 1.10,2013-08-24 05:47:00,
2013-08-24 02:02:00,52.0,49.0,30.27,SSW,192,0.0,0.0,88,0.00,,,0.00,weatherlink.com 1.10,2013-08-24 06:02:00,
2013-08-24 02:17:00,51.5,48.0,30.27,SSW,192,0.0,0.0,88,0.00,,,0.00,weatherlink.com 1.10,2013-08-24 06:17:00,
2013-08-24 02:32:00,51.1,48.0,30.28,SSW,192,0.0,0.0,89,0.00,,,0.00,weatherlink.com 1.10,2013-08-24 06:32:00,
2013-08-24 02:47:00,50.8,48.0,30.28,SSW,192,0.0,1.0,89,0.00,,,0.00,weatherlink.com 1.10,2013-08-24 06:47:00,
2013-08-24 03:02:00,50.6,48.0,30.28,SSW,192,0.0,1.0,89,0.00,,,0.00,weatherlink.com 1.10,2013-08-24 07:02:00,
2013-08-24 03:17:00,50.4,47.0,30.29,SSW,192,0.0,0.0,89,0.00,,,0.00,weatherlink.com 1.10,2013-08-24 07:17:00,
2013-08-24 03:32:00,50.1,47.0,30.29,SSW,192,0.0,0.0,89,0.00,,,0.00,weatherlink.com 1.10,2013-08-24 07:32:00,
2013-08-24 03:47:00,50.0,47.0,30.29,SSW,192,0.0,0.0,89,0.00,,,0.00,weatherlink.com 1.10,2013-08-24 07:47:00,
2013-08-24 04:02:00,49.9,47.0,30.30,SSW,192,0.0,0.0,89,0.00,,,0.00,weatherlink.com 1.10,2013-08-24 08:02:00,
2013-08-24 04:17:00,49.5,46.0,30.30,SSW,192,0.0,0.0,89,0.00,,,0.00,weatherlink.com 1.10,2013-08-24 08:17:00,
2013-08-24 04:32:00,49.1,46.0,30.30,SSW,192,0.0,0.0,89,0.00,,,0.00,weatherlink.com 1.10,2013-08-24 08:32:00,
2013-08-24 04:47:00,49.0,46.0,30.30,SSW,192,0.0,0.0,89,0.00,,,0.00,weatherlink.com 1.10,2013-08-24 08:47:00,
2013-08-24 05:02:00,48.6,46.0,30.31,SSW,192,0.0,0.0,89,0.00,,,0.00,weatherlink.com 1.10,2013-08-24 09:02:00,
2013-08-24 05:17:00,48.3,45.0,30.31,SSW,192,0.0,0.0,89,0.00,,,0.00,weatherlink.com 1.10,2013-08-24 09:17:00,
2013-08-24 05:32:00,48.3,45.0,30.31,SSW,192,0.0,0.0,89,0.00,,,0.00,weatherlink.com 1.10,2013-08-24 09:32:00,
2013-08-24 05:47:00,48.3,45.0,30.32,SSW,192,0.0,0.0,89,0.00,,,0.00,weatherlink.com 1.10,2013-08-24 09:47:00,
2013-08-24 06:02:00,48.1,45.0,30.32,SSW,192,0.0,0.0,89,0.00,,,0.00,weatherlink.com 1.10,2013-08-24 10:02:00,
2013-08-24 06:18:00,47.8,45.0,30.32,SSW,192,0.0,0.0,89,0.00,,,0.00,weatherlink.com 1.10,2013-08-24 10:18:00,
2013-08-24 06:33:00,47.6,45.0,30.33,SSW,192,0.0,0.0,89,0.00,,,0.00,weatherlink.com 1.10,2013-08-24 10:33:00,
2013-08-24 06:48:00,47.6,45.0,30.33,SSW,192,0.0,0.0,89,0.00,,,0.00,weatherlink.com 1.10,2013-08-24 10:48:00,
2013-08-24 07:03:00,47.6,45.0,30.33,SSW,192,0.0,0.0,89,0.00,,,0.00,weatherlink.com 1.10,2013-08-24 11:03:00,
2013-08-24 07:18:00,47.9,45.0,30.34,SSW,192,0.0,0.0,89,0.00,,,0.00,weatherlink.com 1.10,2013-08-24 11:18:00,
2013-08-24 07:33:00,48.0,45.0,30.34,SSW,192,0.0,0.0,89,0.00,,,0.00,weatherlink.com 1.10,2013-08-24 11:33:00,
2013-08-24 07:48:00,48.7,46.0,30.34,SSW,192,0.0,0.0,89,0.00,,,0.00,weatherlink.com 1.10,2013-08-24 11:48:00,
2013-08-24 08:03:00,50.1,47.0,30.35,SSW,192,0.0,1.0,90,0.00,,,0.00,weatherlink.com 1.10,2013-08-24 12:03:00,
2013-08-24 08:18:00,52.2,49.0,30.35,SSW,194,0.0,3.0,90,0.00,,,0.00,weatherlink.com 1.10,2013-08-24 12:18:00,
2013-08-24 08:33:00,54.9,52.0,30.35,SSW,194,0.0,1.0,90,0.00,,,0.00,weatherlink.com 1.10,2013-08-24 12:33:00,
2013-08-24 08:48:00,59.6,57.0,30.36,SSE,147,0.0,4.0,90,0.00,,,0.00,weatherlink.com 1.10,2013-08-24 12:48:00,
2013-08-24 09:03:00,62.5,60.0,30.36,ESE,104,2.0,5.0,90,0.00,,,0.00,weatherlink.com 1.10,2013-08-24 13:03:00,
2013-08-24 09:18:00,64.5,61.0,30.35,ESE,117,0.0,6.0,88,0.00,,,0.00,weatherlink.com 1.10,2013-08-24 13:18:00,
2013-08-24 09:33:00,65.0,61.0,30.35,SSE,153,4.0,8.0,87,0.00,,,0.00,weatherlink.com 1.10,2013-08-24 13:33:00,
2013-08-24 09:48:00,65.3,61.0,30.35,SE,142,3.0,10.0,86,0.00,,,0.00,weatherlink.com 1.10,2013-08-24 13:48:00,
2013-08-24 10:03:00,66.1,62.0,30.35,ESE,123,2.0,8.0,85,0.00,,,0.00,weatherlink.com 1.10,2013-08-24 14:03:00,
2013-08-24 10:18:00,66.3,62.0,30.34,South,188,6.0,11.0,85,0.00,,,0.00,weatherlink.com 1.10,2013-08-24 14:18:00,
2013-08-24 10:33:00,66.5,62.0,30.34,SE,132,6.0,12.0,84,0.00,,,0.00,weatherlink.com 1.10,2013-08-24 14:33:00,
2013-08-24 10:48:00,66.6,61.0,30.34,East,98,3.0,9.0,83,0.00,,,0.00,weatherlink.com 1.10,2013-08-24 14:48:00,
2013-08-24 11:03:00,66.6,62.0,30.34,SE,134,1.0,8.0,84,0.00,,,0.00,weatherlink.com 1.10,2013-08-24 15:03:00,
2013-08-24 11:18:00,67.0,61.0,30.34,SE,134,3.0,8.0,81,0.00,,,0.00,weatherlink.com 1.10,2013-08-24 15:18:00,
2013-08-24 11:33:00,67.7,61.0,30.34,South,180,0.0,9.0,80,0.00,,,0.00,weatherlink.com 1.10,2013-08-24 15:33:00,
2013-08-24 11:48:00,69.2,61.0,30.34,East,82,7.0,8.0,76,0.00,,,0.00,weatherlink.com 1.10,2013-08-24 15:48:00,
2013-08-24 12:03:00,69.8,62.0,30.33,SE,131,3.0,8.0,75,0.00,,,0.00,weatherlink.com 1.10,2013-08-24 16:03:00,
2013-08-24 12:18:00,69.6,62.0,30.33,SE,140,0.0,8.0,77,0.00,,,0.00,weatherlink.com 1.10,2013-08-24 16:18:00,
2013-08-24 12:33:00,68.9,61.0,30.33,SSE,148,2.0,10.0,75,0.00,,,0.00,weatherlink.com 1.10,2013-08-24 16:33:00,
2013-08-24 12:48:00,69.1,61.0,30.33,SE,134,7.0,9.0,75,0.00,,,0.00,weatherlink.com 1.10,2013-08-24 16:48:00,
2013-08-24 13:03:00,69.1,62.0,30.33,ESE,121,0.0,9.0,77,0.00,,,0.00,weatherlink.com 1.10,2013-08-24 17:03:00,
2013-08-24 13:18:00,69.3,63.0,30.33,ESE,118,0.0,8.0,81,0.00,,,0.00,weatherlink.com 1.10,2013-08-24 17:18:00,
2013-08-24 13:33:00,68.9,61.0,30.32,South,183,6.0,9.0,77,0.00,,,0.00,weatherlink.com 1.10,2013-08-24 17:33:00,
2013-08-24 13:48:00,69.4,61.0,30.32,East,96,5.0,9.0,75,0.00,,,0.00,weatherlink.com 1.10,2013-08-24 17:48:00,
2013-08-24 14:03:00,70.0,62.0,30.33,ESE,109,5.0,8.0,76,0.00,,,0.00,weatherlink.com 1.10,2013-08-24 18:03:00,
2013-08-24 14:18:00,70.4,61.0,30.32,SSE,167,6.0,10.0,71,0.00,,,0.00,weatherlink.com 1.10,2013-08-24 18:18:00,
2013-08-24 14:33:00,70.1,61.0,30.32,South,187,2.0,9.0,73,0.00,,,0.00,weatherlink.com 1.10,2013-08-24 18:33:00,
2013-08-24 14:48:00,71.1,62.0,30.31,South,170,3.0,9.0,73,0.00,,,0.00,weatherlink.com 1.10,2013-08-24 18:48:00,
2013-08-24 15:03:00,71.3,62.0,30.30,SE,131,4.0,10.0,72,0.00,,,0.00,weatherlink.com 1.10,2013-08-24 19:03:00,
2013-08-24 15:18:00,71.0,62.0,30.30,ENE,61,4.0,10.0,73,0.00,,,0.00,weatherlink.com 1.10,2013-08-24 19:18:00,
2013-08-24 15:33:00,71.5,62.0,30.31,SSE,165,5.0,8.0,72,0.00,,,0.00,weatherlink.com 1.10,2013-08-24 19:33:00,
2013-08-24 15:48:00,71.9,62.0,30.31,ESE,121,7.0,8.0,72,0.00,,,0.00,weatherlink.com 1.10,2013-08-24 19:48:00,
2013-08-24 16:03:00,71.7,63.0,30.31,South,182,5.0,8.0,74,0.00,,,0.00,weatherlink.com 1.10,2013-08-24 20:03:00,
2013-08-24 16:18:00,70.9,61.0,30.31,SE,136,4.0,7.0,72,0.00,,,0.00,weatherlink.com 1.10,2013-08-24 20:18:00,
2013-08-24 16:33:00,71.2,63.0,30.30,South,176,4.0,7.0,74,0.00,,,0.00,weatherlink.com 1.10,2013-08-24 20:33:00,
2013-08-24 16:48:00,71.1,63.0,30.30,SE,130,4.0,8.0,76,0.00,,,0.00,weatherlink.com 1.10,2013-08-24 20:48:00,
2013-08-24 17:03:00,71.2,64.0,30.30,SE,132,6.0,9.0,77,0.00,,,0.00,weatherlink.com 1.10,2013-08-24 21:03:00,
2013-08-24 17:18:00,71.4,64.0,30.29,ENE,73,4.0,7.0,77,0.00,,,0.00,weatherlink.com 1.10,2013-08-24 21:18:00,
2013-08-24 17:33:00,71.6,64.0,30.30,SE,125,0.0,5.0,76,0.00,,,0.00,weatherlink.com 1.10,2013-08-24 21:33:00,
2013-08-24 17:48:00,71.6,64.0,30.29,SSE,165,3.0,7.0,76,0.00,,,0.00,weatherlink.com 1.10,2013-08-24 21:48:00,
2013-08-24 18:03:00,71.2,63.0,30.29,SE,146,2.0,6.0,76,0.00,,,0.00,weatherlink.com 1.10,2013-08-24 22:03:00,
2013-08-24 18:18:00,70.7,63.0,30.29,SE,129,3.0,6.0,77,0.00,,,0.00,weatherlink.com 1.10,2013-08-24 22:18:00,
2013-08-24 18:33:00,70.3,64.0,30.29,ESE,112,3.0,6.0,79,0.00,,,0.00,weatherlink.com 1.10,2013-08-24 22:33:00,
2013-08-24 18:48:00,69.7,63.0,30.30,ESE,107,4.0,7.0,80,0.00,,,0.00,weatherlink.com 1.10,2013-08-24 22:48:00,
2013-08-24 19:03:00,69.6,63.0,30.29,ESE,120,0.0,5.0,80,0.00,,,0.00,weatherlink.com 1.10,2013-08-24 23:03:00,
2013-08-24 19:18:00,69.0,63.0,30.29,SSE,150,0.0,5.0,80,0.00,,,0.00,weatherlink.com 1.10,2013-08-24 23:18:00,
2013-08-24 19:33:00,68.5,63.0,30.28,ESE,115,0.0,5.0,81,0.00,,,0.00,weatherlink.com 1.10,2013-08-24 23:33:00,
2013-08-24 19:49:00,67.8,63.0,30.28,SE,134,0.0,4.0,83,0.00,,,0.00,weatherlink.com 1.10,2013-08-24 23:49:00,
2013-08-24 20:04:00,67.1,62.0,30.28,SE,126,0.0,4.0,84,0.00,,,0.00,weatherlink.com 1.10,2013-08-25 00:04:00,
2013-08-24 20:19:00,66.5,62.0,30.27,ESE,119,1.0,3.0,85,0.00,,,0.00,weatherlink.com 1.10,2013-08-25 00:19:00,
2013-08-24 20:34:00,65.9,61.0,30.27,SE,136,0.0,4.0,85,0.00,,,0.00,weatherlink.com 1.10,2013-08-25 00:34:00,
2013-08-24 20:49:00,65.3,61.0,30.28,SE,136,2.0,2.0,85,0.00,,,0.00,weatherlink.com 1.10,2013-08-25 00:49:00,
2013-08-24 21:04:00,64.9,60.0,30.28,ESE,118,0.0,3.0,85,0.00,,,0.00,weatherlink.com 1.10,2013-08-25 01:04:00,
2013-08-24 21:19:00,64.6,60.0,30.29,ESE,118,0.0,2.0,84,0.00,,,0.00,weatherlink.com 1.10,2013-08-25 01:19:00,
2013-08-24 21:34:00,63.7,59.0,30.29,ESE,118,0.0,0.0,85,0.00,,,0.00,weatherlink.com 1.10,2013-08-25 01:34:00,
2013-08-24 21:49:00,63.3,59.0,30.28,ESE,118,0.0,0.0,86,0.00,,,0.00,weatherlink.com 1.10,2013-08-25 01:49:00,
2013-08-24 22:04:00,63.1,59.0,30.28,ESE,118,0.0,0.0,85,0.00,,,0.00,weatherlink.com 1.10,2013-08-25 02:04:00,
2013-08-24 22:19:00,63.2,59.0,30.27,ENE,69,0.0,3.0,85,0.00,,,0.00,weatherlink.com 1.10,2013-08-25 02:19:00,